Terminal Aerodrome Forecast
Issued by NWS Atlanta, GA

Home | Current Version | Previous Version | Text Only | Print | Product List | Glossary On
Versions: 1 2 3 4 5 6 7 8 9 10 11 12 13 14 15 16 17 18 19 20 21 22 23 24 25 26
000
FTUS42 KFFC 051502 AAA
TAFCSG
TAF AMD
KCSG 051502Z 0515/0612 21004KT P6SM VCSH BKN008 OVC025
      TEMPO 0515/0519 4SM -TSRA BKN025CB
     FM051900 22009G14KT P6SM VCSH BKN050
     FM060200 25003KT P6SM BKN040=

USA.gov is the U.S. government's official web portal to all federal, state and local government web resources and services.